Aérodrome :
LOGIN :

S'inscrire | Disclaimer

   EN    FR    IT 

 










Légende :    VFR   VFR Marginal   IFR   IFR Intensif   IFR Très Intensif
Visi : 
Plafond : 
>= 8 km
>= 3000ft
5 à 8 km
1000 à 3000 ft
1500m à 5 km
500 à 1000 ft
800 à 1500m
200 à 500 ft
< 800m
< 200 ft
Symboles :   Orages  Brouillard  Fortes neiges  Fortes précipitations  Vent > 20 kt
SIGMETs :   Divers  Orages  Givrage  Turbulence  Onde Orograph.  Cendres Volcan.






- Altitude de l'aérodrome : 52 ft
- Code IATA : IOM


EGNS - Isle of Man

DERNIER METAR :
  • 260720Z 19023KT 4000 RA BKN007 09/08 Q1000 TEMPO +RA

METARs EXPIRÉS :
  • 260650Z 19024KT 8000 -RA BKN007 OVC011 09/08 Q1000 TEMPO 3000 RA
  • 260620Z 19023KT 5000 RA BKN007 OVC017 08/08 Q1001 NOSIG
  • 260550Z 19023KT 4000 -RA SCT006 OVC009 09/07 Q1001 NOSIG
  • 260520Z 19021KT 9999 SCT011 OVC018 09/07 Q1002 BECMG 6000 RA BKN012
  • 260450Z 19022KT 9999 FEW015 OVC027 09/07 Q1002

TAF TAF EGNS
Valide du 26 à 06h jusqu'au 26 à 15h UTC


260500Z 2606/2615 19025G35KT 9999 -RA SCT012 BKN020
BECMG 2606/2607 6000 RA BKN012
TEMPO 2606/2609 4000 +RA BKN007
BECMG 2608/2611 26017G27KT 9999 NSW FEW012



MET'MAP, la Météo Aéronautique d'un coup d'oeil ! - Copyright ORBIFLY Décembre 2007 - Disclaimer

ORBIFLY MET'MAP TEAM :

Programmation & Développement : Alexandra Zaïnal
Sur une idée originale de : Baudouin d'Aumeries
Assistance à la programmation : Marc-Olivier Méhu
Soutien technique & logistique : Manuel Goepfert

Contact : metmap@orbifly.com




SOURCES & CREDITS :

   NOAA